Time;durP1;ratioP1;P1;durP2;ratioP2;P2;SDS_P1;SDS_P2;PMS_P1;PMS_P2;Temp;Humidity;BMP_temperature;BMP_pressure;BME280_temperature;BME280_humidity;BME280_pressure;Samples;Min_cycle;Max_cycle;Signal;HPM_P1;HPM_P2
2023/10/18 00:01:00;;;;;;;6.37;4.00;;;;;;;5.62;100.00;99926.13;4985641;28;20245;-79
2023/10/18 00:03:30;;;;;;;7.70;3.23;;;;;;;5.58;100.00;99926.28;4992432;28;20176;-79
2023/10/18 00:05:59;;;;;;;5.80;4.00;;;;;;;5.55;100.00;99923.88;4990046;28;20315;-79
2023/10/18 00:08:25;;;;;;;3.83;3.33;;;;;;;5.48;100.00;99929.19;4992383;28;20282;-76
2023/10/18 00:10:53;;;;;;;5.07;3.30;;;;;;;5.44;100.00;99926.78;4985675;28;20375;-79
2023/10/18 00:13:18;;;;;;;4.03;3.57;;;;;;;5.41;100.00;99930.28;4992195;28;20186;-80
2023/10/18 00:15:43;;;;;;;4.67;3.70;;;;;;;5.33;100.00;99922.94;4992734;28;20859;-80
2023/10/18 00:18:11;;;;;;;4.20;3.70;;;;;;;5.33;100.00;99922.06;4992481;28;20670;-80
2023/10/18 00:20:36;;;;;;;3.83;3.43;;;;;;;5.33;100.00;99914.41;4987926;28;20252;-80
2023/10/18 00:23:02;;;;;;;4.60;4.10;;;;;;;5.25;100.00;99912.16;5003851;28;20189;-80
2023/10/18 00:25:27;;;;;;;6.80;3.90;;;;;;;5.20;100.00;99900.44;4993707;28;20196;-80
2023/10/18 00:27:52;;;;;;;4.97;3.63;;;;;;;5.20;100.00;99890.25;4992503;28;20236;-80
2023/10/18 00:30:18;;;;;;;8.30;4.00;;;;;;;5.33;100.00;99904.22;4984436;28;20530;-80
2023/10/18 00:32:44;;;;;;;6.57;4.00;;;;;;;5.40;100.00;99902.28;5005974;28;20185;-80
2023/10/18 00:35:20;;;;;;;4.67;3.50;;;;;;;5.45;100.00;99888.47;4993648;28;20235;-79
2023/10/18 00:37:46;;;;;;;4.53;3.63;;;;;;;5.32;100.00;99900.00;4980918;28;20181;-79
2023/10/18 00:40:25;;;;;;;4.47;3.93;;;;;;;5.33;100.00;99896.56;4982143;28;20184;-78
2023/10/18 00:42:52;;;;;;;5.13;4.00;;;;;;;5.40;100.00;99892.09;4979302;28;20589;-79
2023/10/18 00:45:19;;;;;;;6.17;4.43;;;;;;;5.50;100.00;99888.31;4993563;28;20182;-79
2023/10/18 00:47:45;;;;;;;5.07;3.87;;;;;;;5.32;100.00;99889.78;4992113;28;20566;-80
2023/10/18 00:50:11;;;;;;;5.33;3.63;;;;;;;5.32;100.00;99880.44;4982826;28;20185;-80
2023/10/18 00:52:37;;;;;;;3.80;3.50;;;;;;;5.43;100.00;99877.50;4991173;28;20181;-81
2023/10/18 00:55:04;;;;;;;6.77;3.77;;;;;;;5.50;100.00;99880.66;4992111;28;20551;-80
2023/10/18 00:57:35;;;;;;;4.27;3.80;;;;;;;5.33;100.00;99873.63;4991932;28;20195;-80
2023/10/18 01:00:08;;;;;;;7.67;4.40;;;;;;;5.39;100.00;99875.94;4993172;28;20182;-80
2023/10/18 01:02:41;;;;;;;5.30;4.10;;;;;;;5.42;100.00;99875.84;4965000;28;20680;-80
2023/10/18 01:05:12;;;;;;;5.77;4.27;;;;;;;5.41;100.00;99875.88;4992862;28;20588;-80
2023/10/18 01:07:38;;;;;;;6.07;4.30;;;;;;;5.29;100.00;99865.25;4991879;28;20257;-80
2023/10/18 01:10:07;;;;;;;6.57;4.27;;;;;;;5.27;100.00;99876.38;4985078;28;20269;-79
2023/10/18 01:12:34;;;;;;;5.30;4.00;;;;;;;5.21;100.00;99871.50;4990365;28;20256;-80
2023/10/18 01:15:00;;;;;;;4.47;3.90;;;;;;;5.32;100.00;99870.25;4992929;28;20190;-79
2023/10/18 01:17:25;;;;;;;5.93;4.23;;;;;;;5.23;100.00;99867.19;4992984;28;20546;-79
2023/10/18 01:19:53;;;;;;;4.50;3.93;;;;;;;5.16;100.00;99864.03;4993262;28;20237;-79
2023/10/18 01:22:19;;;;;;;4.87;4.40;;;;;;;5.29;100.00;99857.59;4997097;28;20225;-79
2023/10/18 01:24:45;;;;;;;4.57;4.10;;;;;;;5.16;100.00;99858.94;4992642;28;20184;-78
2023/10/18 01:27:12;;;;;;;8.80;4.37;;;;;;;5.08;100.00;99858.38;4991117;28;20276;-80
2023/10/18 01:29:38;;;;;;;8.40;4.60;;;;;;;5.08;100.00;99851.53;4992524;28;20680;-79
2023/10/18 01:32:04;;;;;;;4.70;4.30;;;;;;;5.04;100.00;99851.72;4983719;28;20227;-79
2023/10/18 01:34:31;;;;;;;7.43;4.50;;;;;;;5.15;100.00;99849.63;4991009;28;20190;-78
2023/10/18 01:36:57;;;;;;;6.37;4.23;;;;;;;5.17;100.00;99846.13;4991127;28;20618;-80
2023/10/18 01:39:24;;;;;;;5.97;4.63;;;;;;;5.15;100.00;99840.25;4993018;28;20526;-80
2023/10/18 01:41:53;;;;;;;5.13;4.60;;;;;;;5.23;100.00;99844.25;4983384;28;20326;-79
2023/10/18 01:44:27;;;;;;;7.40;4.93;;;;;;;5.10;100.00;99842.13;4990922;28;20180;-81
2023/10/18 01:46:55;;;;;;;5.67;4.73;;;;;;;5.06;100.00;99829.53;4992102;28;20183;-80
2023/10/18 01:49:22;;;;;;;6.43;4.80;;;;;;;5.03;100.00;99827.13;4991205;28;20227;-80
2023/10/18 01:51:54;;;;;;;7.53;4.97;;;;;;;5.00;100.00;99825.50;4995432;28;20703;-80
2023/10/18 01:54:24;;;;;;;7.13;4.77;;;;;;;5.06;100.00;99821.91;4993521;28;20193;-80
2023/10/18 01:56:51;;;;;;;5.97;5.00;;;;;;;4.99;100.00;99811.91;4990493;28;20220;-79
2023/10/18 01:59:17;;;;;;;8.20;5.10;;;;;;;4.91;100.00;99818.19;4992240;28;20187;-80
2023/10/18 02:01:51;;;;;;;6.53;4.97;;;;;;;4.94;100.00;99807.88;4983179;28;20248;-80
2023/10/18 02:04:26;;;;;;;6.60;4.40;;;;;;;4.97;100.00;99800.97;4993835;28;20259;-79
2023/10/18 02:06:59;;;;;;;6.43;4.33;;;;;;;4.84;100.00;99805.66;4991050;28;20207;-81
2023/10/18 02:09:36;;;;;;;5.17;4.57;;;;;;;4.87;100.00;99801.34;4990652;28;20199;-80
2023/10/18 02:12:04;;;;;;;7.03;4.53;;;;;;;4.90;100.00;99804.63;4983765;28;20222;-80
2023/10/18 02:14:33;;;;;;;5.67;5.00;;;;;;;5.03;100.00;99810.09;4993832;28;20191;-80
2023/10/18 02:17:01;;;;;;;5.47;4.33;;;;;;;4.95;100.00;99812.06;4994907;28;20184;-80
2023/10/18 02:19:27;;;;;;;5.87;5.00;;;;;;;4.90;100.00;99812.25;4994848;28;20576;-81
2023/10/18 02:21:56;;;;;;;6.93;5.03;;;;;;;5.01;100.00;99809.31;4999236;28;20223;-80
2023/10/18 02:24:22;;;;;;;7.47;4.73;;;;;;;5.00;100.00;99810.22;4994717;28;20246;-80
2023/10/18 02:26:53;;;;;;;6.47;4.60;;;;;;;4.92;100.00;99813.03;4994173;28;20181;-80
2023/10/18 02:29:19;;;;;;;7.40;4.73;;;;;;;5.03;100.00;99812.63;4994716;28;20295;-80
2023/10/18 02:31:45;;;;;;;5.07;4.60;;;;;;;4.76;100.00;99807.63;4972216;28;20750;-80
2023/10/18 02:34:14;;;;;;;7.63;5.83;;;;;;;4.81;100.00;99793.03;4992292;28;20189;-79
2023/10/18 02:36:39;;;;;;;7.83;4.83;;;;;;;4.88;100.00;99786.00;4995387;28;20843;-80
2023/10/18 02:39:09;;;;;;;7.13;5.00;;;;;;;4.83;100.00;99778.50;4995882;28;20271;-79
2023/10/18 02:41:37;;;;;;;5.47;4.60;;;;;;;4.77;100.00;99783.00;4986713;28;20243;-79
2023/10/18 02:44:07;;;;;;;7.07;4.50;;;;;;;4.83;100.00;99782.78;4994374;28;20173;-80
2023/10/18 02:46:33;;;;;;;12.60;4.17;;;;;;;4.90;100.00;99784.22;4994072;28;20670;-80
2023/10/18 02:49:00;;;;;;;5.47;4.40;;;;;;;4.90;100.00;99786.78;4994188;28;20215;-80
2023/10/18 02:51:26;;;;;;;8.30;4.43;;;;;;;4.83;100.00;99782.78;4995393;28;20293;-80
2023/10/18 02:53:53;;;;;;;6.67;4.53;;;;;;;4.82;100.00;99788.75;4994244;28;20176;-79
2023/10/18 02:56:27;;;;;;;5.90;4.10;;;;;;;4.80;100.00;99782.88;4994077;28;20207;-80
2023/10/18 02:58:55;;;;;;;5.47;4.13;;;;;;;4.86;100.00;99767.38;4994105;28;20190;-80
2023/10/18 03:01:21;;;;;;;7.97;4.87;;;;;;;4.80;100.00;99772.69;4994459;28;20252;-76
2023/10/18 03:03:49;;;;;;;5.33;4.83;;;;;;;4.85;100.00;99766.53;5000144;28;20237;-79
2023/10/18 03:06:14;;;;;;;5.70;4.33;;;;;;;4.73;100.00;99772.09;4995107;28;20655;-80
2023/10/18 03:08:44;;;;;;;7.87;4.60;;;;;;;4.65;100.00;99762.16;4992339;28;20216;-80
2023/10/18 03:11:11;;;;;;;4.37;3.97;;;;;;;4.66;100.00;99756.19;4993562;28;20302;-80
2023/10/18 03:13:37;;;;;;;5.10;3.63;;;;;;;4.59;100.00;99752.19;4993146;28;20180;-81
2023/10/18 03:16:06;;;;;;;7.07;4.50;;;;;;;4.57;100.00;99748.03;4995427;28;20194;-79
2023/10/18 03:18:37;;;;;;;5.30;4.40;;;;;;;4.53;100.00;99747.31;4993118;28;20176;-79
2023/10/18 03:21:06;;;;;;;4.00;3.63;;;;;;;4.63;100.00;99752.91;4986893;28;20230;-80
2023/10/18 03:23:32;;;;;;;5.33;4.13;;;;;;;4.62;100.00;99757.16;4993115;28;20238;-76
2023/10/18 03:25:59;;;;;;;6.33;4.00;;;;;;;4.59;100.00;99769.19;4995350;28;20274;-80
2023/10/18 03:28:25;;;;;;;5.07;4.57;;;;;;;4.56;100.00;99759.94;4993308;28;20200;-79
2023/10/18 03:30:50;;;;;;;5.53;4.07;;;;;;;4.55;100.00;99754.91;4970742;28;20242;-80
2023/10/18 03:33:16;;;;;;;4.13;3.83;;;;;;;4.59;100.00;99761.53;4992311;28;20187;-80
2023/10/18 03:35:43;;;;;;;7.07;4.50;;;;;;;4.59;100.00;99759.00;4994680;28;20258;-80
2023/10/18 03:38:17;;;;;;;5.00;4.53;;;;;;;4.56;100.00;99757.38;4993396;28;20631;-80
2023/10/18 03:40:56;;;;;;;8.20;4.93;;;;;;;4.55;100.00;99750.63;4983864;28;20243;-79
2023/10/18 03:43:26;;;;;;;6.00;4.50;;;;;;;4.53;100.00;99760.06;4983817;28;20184;-79
2023/10/18 03:46:13;;;;;;;6.67;4.90;;;;;;;4.52;100.00;99749.00;4994706;28;20319;-79
2023/10/18 03:48:47;;;;;;;4.80;4.40;;;;;;;4.50;100.00;99744.88;4992823;28;20294;-80
2023/10/18 03:51:18;;;;;;;7.00;4.83;;;;;;;4.50;100.00;99747.41;4993693;28;20272;-80
2023/10/18 03:53:45;;;;;;;4.30;3.90;;;;;;;4.46;100.00;99739.03;4991928;28;20237;-79
2023/10/18 03:56:13;;;;;;;5.43;4.93;;;;;;;4.34;100.00;99729.28;4994628;28;20183;-78
2023/10/18 03:58:39;;;;;;;7.33;4.33;;;;;;;4.40;100.00;99728.25;4994005;28;20345;-78
2023/10/18 04:01:05;;;;;;;6.00;4.43;;;;;;;4.28;100.00;99714.22;4992274;28;20253;-80
2023/10/18 04:03:30;;;;;;;9.40;5.23;;;;;;;4.19;100.00;99708.56;4991632;28;20176;-78
2023/10/18 04:06:07;;;;;;;7.10;4.70;;;;;;;4.26;100.00;99700.72;4994309;28;20195;-79
2023/10/18 04:08:34;;;;;;;7.03;5.17;;;;;;;4.30;100.00;99702.28;4994082;28;20275;-79
2023/10/18 04:10:59;;;;;;;5.40;4.50;;;;;;;4.31;100.00;99693.75;4985752;28;20246;-79
2023/10/18 04:13:27;;;;;;;5.23;4.83;;;;;;;4.24;100.00;99700.75;4992440;28;20661;-79
2023/10/18 04:16:11;;;;;;;6.13;5.10;;;;;;;4.23;100.00;99700.81;4992516;28;20217;-80
2023/10/18 04:18:43;;;;;;;5.90;5.13;;;;;;;4.31;100.00;99704.75;4993652;28;20647;-79
2023/10/18 04:21:15;;;;;;;5.60;4.93;;;;;;;4.26;100.00;99705.81;4985243;28;20305;-80
2023/10/18 04:23:46;;;;;;;8.07;5.37;;;;;;;4.27;100.00;99707.47;4992439;28;20226;-80
2023/10/18 04:26:36;;;;;;;10.40;5.10;;;;;;;4.28;100.00;99706.56;4993451;28;20175;-80
2023/10/18 04:29:10;;;;;;;8.97;5.40;;;;;;;4.24;100.00;99710.94;4993261;28;20215;-80
2023/10/18 04:31:35;;;;;;;6.77;5.23;;;;;;;4.27;100.00;99699.84;4984379;28;20337;-79
2023/10/18 04:34:03;;;;;;;7.97;5.33;;;;;;;4.27;100.00;99703.22;4991951;28;20624;-80
2023/10/18 04:36:33;;;;;;;6.67;5.27;;;;;;;4.30;100.00;99699.72;4991980;28;20230;-78
2023/10/18 04:38:59;;;;;;;7.90;5.57;;;;;;;4.27;100.00;99692.22;4994010;28;20267;-78
2023/10/18 04:41:27;;;;;;;8.70;5.60;;;;;;;4.23;100.00;99686.41;4993824;28;20640;-79
2023/10/18 04:46:29;;;;;;;7.43;6.00;;;;;;;4.26;100.00;99681.19;4993919;28;20191;-78
2023/10/18 04:51:26;;;;;;;8.20;5.57;;;;;;;4.30;100.00;99670.00;4993738;28;20648;-78
2023/10/18 04:54:03;;;;;;;7.57;5.50;;;;;;;4.24;100.00;99662.56;4981049;28;20615;-79
2023/10/18 04:56:34;;;;;;;6.97;5.40;;;;;;;4.26;100.00;99665.91;4979926;28;20190;-80
2023/10/18 04:59:00;;;;;;;7.07;5.47;;;;;;;4.27;100.00;99659.94;5006112;28;20642;-79
2023/10/18 05:01:36;;;;;;;7.53;5.83;;;;;;;4.32;100.00;99663.13;4998627;28;20250;-80
2023/10/18 05:04:20;;;;;;;7.30;6.30;;;;;;;4.31;100.00;99655.56;4992171;28;20564;-79
2023/10/18 05:06:52;;;;;;;8.47;6.33;;;;;;;4.30;100.00;99659.81;4991741;28;20495;-80
2023/10/18 05:09:18;;;;;;;7.97;5.83;;;;;;;4.28;100.00;99650.56;4993064;28;20203;-80
2023/10/18 05:11:55;;;;;;;7.43;5.73;;;;;;;4.31;100.00;99660.66;4993770;28;20389;-80
2023/10/18 05:14:35;;;;;;;7.90;5.93;;;;;;;4.36;100.00;99661.31;4980604;28;20195;-80
2023/10/18 05:17:02;;;;;;;6.80;6.10;;;;;;;4.27;100.00;99651.47;4979733;28;20575;-79
2023/10/18 05:19:37;;;;;;;7.83;5.83;;;;;;;4.28;100.00;99658.19;4993521;28;20778;-80
2023/10/18 05:22:04;;;;;;;9.13;6.07;;;;;;;4.29;100.00;99662.41;4997691;28;20256;-78
2023/10/18 05:24:33;;;;;;;7.43;5.30;;;;;;;4.29;100.00;99662.41;4991298;28;20187;-80
2023/10/18 05:27:04;;;;;;;8.23;6.30;;;;;;;4.31;100.00;99655.56;4993112;28;20183;-81
2023/10/18 05:29:42;;;;;;;9.70;6.70;;;;;;;4.22;100.00;99656.72;4992681;28;20203;-79
2023/10/18 05:32:13;;;;;;;8.60;6.20;;;;;;;4.24;100.00;99654.94;4997893;28;20269;-80
2023/10/18 05:37:32;;;;;;;7.57;6.20;;;;;;;4.20;100.00;99644.06;4996605;28;20660;-81
2023/10/18 05:40:57;;;;;;;7.03;5.93;;;;;;;4.26;100.00;99635.34;4992610;28;20175;-80
2023/10/18 05:42:51;;;;;;;10.27;7.50;;;;;;;4.17;100.00;99636.50;4971122;28;20249;-81
2023/10/18 05:45:17;;;;;;;9.10;7.10;;;;;;;4.18;100.00;99640.72;4991087;28;20207;-80
2023/10/18 05:47:43;;;;;;;8.00;7.20;;;;;;;4.12;100.00;99630.75;4990867;28;20183;-80
2023/10/18 05:50:12;;;;;;;7.50;6.60;;;;;;;4.16;100.00;99631.47;4981260;28;20266;-79
2023/10/18 05:52:38;;;;;;;8.00;6.80;;;;;;;4.15;100.00;99628.09;5005579;28;20263;-81
2023/10/18 05:55:09;;;;;;;7.87;7.03;;;;;;;4.12;100.00;99625.66;4991218;28;20191;-81
2023/10/18 05:57:35;;;;;;;9.10;7.20;;;;;;;4.16;100.00;99636.56;4991195;28;20206;-80
2023/10/18 06:00:01;;;;;;;8.63;7.03;;;;;;;4.23;100.00;99629.53;4991034;28;20230;-80
2023/10/18 06:02:26;;;;;;;14.67;7.70;;;;;;;4.22;100.00;99631.25;4980471;28;20231;-79
2023/10/18 06:04:55;;;;;;;12.00;7.27;;;;;;;4.17;100.00;99628.06;4990543;28;20199;-81
2023/10/18 06:07:23;;;;;;;8.00;7.20;;;;;;;4.16;100.00;99632.28;4992050;28;20183;-81
2023/10/18 06:09:57;;;;;;;9.77;8.00;;;;;;;4.23;100.00;99637.16;4979498;28;20208;-82
2023/10/18 06:12:23;;;;;;;8.50;7.13;;;;;;;4.27;100.00;99637.00;4993461;28;20678;-81
2023/10/18 06:14:52;;;;;;;10.77;7.83;;;;;;;4.19;100.00;99633.91;4991770;28;20176;-81
2023/10/18 06:17:46;;;;;;;8.27;7.37;;;;;;;4.29;100.00;99631.84;4983597;28;20261;-82
2023/10/18 06:20:30;;;;;;;9.47;8.00;;;;;;;4.33;100.00;99628.34;4977609;28;20293;-79
2023/10/18 06:23:08;;;;;;;9.60;7.60;;;;;;;4.39;100.00;99629.81;4990255;28;20712;-78
2023/10/18 06:25:35;;;;;;;9.73;7.60;;;;;;;4.45;100.00;99627.88;4992028;28;20643;-80
2023/10/18 06:28:01;;;;;;;12.53;8.27;;;;;;;4.56;100.00;99614.72;4981928;28;20568;-80
2023/10/18 06:30:26;;;;;;;10.87;8.37;;;;;;;4.61;100.00;99615.38;4983938;28;20231;-78
2023/10/18 06:32:52;;;;;;;8.27;7.47;;;;;;;4.68;100.00;99608.34;4995107;28;20188;-77
2023/10/18 06:35:17;;;;;;;10.93;7.83;;;;;;;4.76;100.00;99608.06;4991725;28;20187;-77
2023/10/18 06:37:43;;;;;;;10.43;7.93;;;;;;;4.83;100.00;99606.94;4991794;28;20180;-76
2023/10/18 06:40:43;;;;;;;15.27;8.10;;;;;;;4.82;100.00;99603.53;4983013;28;20274;-77
2023/10/18 06:43:03;;;;;;;9.53;8.50;;;;;;;4.89;100.00;99603.31;5003493;28;20206;-79
2023/10/18 06:45:33;;;;;;;8.30;7.47;;;;;;;5.00;100.00;99607.09;4991143;28;20183;-77
2023/10/18 06:47:59;;;;;;;13.97;8.70;;;;;;;5.06;100.00;99605.19;4992190;28;20215;-77
2023/10/18 06:50:27;;;;;;;10.60;8.93;;;;;;;5.16;100.00;99607.31;4984364;28;20257;-77
2023/10/18 06:52:53;;;;;;;9.87;8.40;;;;;;;5.21;100.00;99596.94;5003863;28;20201;-80
2023/10/18 06:55:20;;;;;;;11.90;8.73;;;;;;;5.25;100.00;99590.81;4991444;28;20828;-79
2023/10/18 06:57:49;;;;;;;14.93;8.50;;;;;;;5.42;100.00;99597.78;4990145;28;20200;-76
2023/10/18 07:00:15;;;;;;;11.67;8.57;;;;;;;5.63;100.00;99596.06;4984874;28;20185;-76
2023/10/18 07:02:40;;;;;;;39.93;10.63;;;;;;;5.68;100.00;99593.34;4990039;28;20231;-77
2023/10/18 07:05:08;;;;;;;11.67;8.40;;;;;;;6.12;100.00;99584.66;4994373;28;20190;-80
2023/10/18 07:07:34;;;;;;;15.33;8.53;;;;;;;6.81;100.00;99590.06;4993493;28;20217;-56
2023/10/18 07:10:04;;;;;;;14.43;8.30;;;;;;;6.69;100.00;99584.63;4995063;28;20586;-77
2023/10/18 07:12:44;;;;;;;8.87;7.97;;;;;;;6.38;100.00;99582.66;4979313;28;20689;-77
2023/10/18 07:15:16;;;;;;;9.40;8.43;;;;;;;6.10;100.00;99589.84;4994264;28;20628;-75
2023/10/18 07:17:46;;;;;;;11.80;8.93;;;;;;;6.02;100.00;99591.91;4988672;28;20184;-78
2023/10/18 07:20:15;;;;;;;9.23;7.73;;;;;;;6.04;100.00;99592.66;4975471;28;20230;-77
2023/10/18 07:22:45;;;;;;;25.37;9.87;;;;;;;6.05;100.00;99588.38;5005242;28;20552;-77
2023/10/18 07:25:21;;;;;;;16.37;9.00;;;;;;;6.20;100.00;99587.72;4993781;28;20665;-77
2023/10/18 07:27:46;;;;;;;14.00;8.57;;;;;;;6.09;100.00;99588.19;4993614;28;20225;-78
2023/10/18 07:30:15;;;;;;;12.97;8.63;;;;;;;5.98;100.00;99582.69;4966088;28;20233;-78
2023/10/18 07:32:42;;;;;;;9.63;8.73;;;;;;;5.98;100.00;99577.59;4991757;28;20714;-77
2023/10/18 07:35:12;;;;;;;13.73;7.87;;;;;;;6.02;100.00;99568.91;4987147;28;20281;-80
2023/10/18 07:37:41;;;;;;;17.10;9.30;;;;;;;5.98;100.00;99558.00;4989671;28;20265;-78
2023/10/18 07:40:09;;;;;;;9.50;8.57;;;;;;;6.04;100.00;99564.56;4983703;28;20634;-79
2023/10/18 07:42:35;;;;;;;9.43;8.17;;;;;;;6.04;100.00;99556.91;5007947;28;20281;-77
2023/10/18 07:45:04;;;;;;;14.07;9.20;;;;;;;6.08;100.00;99550.78;4994379;28;20669;-78
2023/10/18 07:47:32;;;;;;;17.00;9.40;;;;;;;6.26;100.00;99554.22;4993466;28;20172;-78
2023/10/18 07:50:01;;;;;;;21.90;9.40;;;;;;;6.37;100.00;99545.25;4993918;28;20190;-77
2023/10/18 07:52:26;;;;;;;10.33;9.23;;;;;;;6.53;100.00;99547.91;4983058;28;20229;-79
2023/10/18 07:54:52;;;;;;;9.83;8.70;;;;;;;6.66;100.00;99550.72;4993223;28;20198;-78
2023/10/18 07:57:18;;;;;;;9.77;8.87;;;;;;;6.85;100.00;99553.25;4994518;28;20707;-77
2023/10/18 07:59:47;;;;;;;16.27;9.67;;;;;;;6.93;100.00;99541.75;4994103;28;20179;-78
2023/10/18 08:02:13;;;;;;;15.60;8.37;;;;;;;6.80;100.00;99548.34;4984467;28;20666;-77
2023/10/18 08:04:42;;;;;;;11.73;9.53;;;;;;;6.89;100.00;99544.53;5008663;28;20171;-77
2023/10/18 08:07:10;;;;;;;18.03;9.70;;;;;;;6.71;100.00;99541.94;4993277;28;20206;-76
2023/10/18 08:09:41;;;;;;;15.33;9.33;;;;;;;6.71;100.00;99530.88;4992536;28;20289;-78
2023/10/18 08:12:15;;;;;;;10.93;9.00;;;;;;;6.80;100.00;99530.44;4983575;28;20258;-73
2023/10/18 08:14:40;;;;;;;10.50;8.80;;;;;;;6.80;100.00;99535.56;4992686;28;20202;-77
2023/10/18 08:17:09;;;;;;;15.73;9.87;;;;;;;6.92;100.00;99524.75;4993018;28;20258;-77
2023/10/18 08:19:43;;;;;;;12.37;9.10;;;;;;;6.98;100.00;99520.22;4992727;28;20266;-77
2023/10/18 08:24:41;;;;;;;9.77;8.77;;;;;;;7.34;100.00;99515.00;4993819;28;20202;-79
2023/10/18 08:27:09;;;;;;;13.90;8.97;;;;;;;7.56;100.00;99519.03;4994352;28;20234;-79
2023/10/18 08:29:38;;;;;;;9.73;8.73;;;;;;;7.64;100.00;99519.47;4992633;28;20207;-78
2023/10/18 08:32:09;;;;;;;9.17;8.23;;;;;;;7.41;100.00;99521.47;4998443;28;20231;-79
2023/10/18 08:34:35;;;;;;;9.60;8.60;;;;;;;7.36;100.00;99514.94;4993742;28;20186;-77
2023/10/18 08:37:04;;;;;;;10.93;9.73;;;;;;;7.53;100.00;99512.34;4993710;28;20191;-77
2023/10/18 08:39:30;;;;;;;10.50;8.77;;;;;;;7.70;100.00;99520.88;4992823;28;20275;-78
2023/10/18 08:42:12;;;;;;;9.47;8.43;;;;;;;7.85;100.00;99524.38;4983105;28;20234;-78
2023/10/18 08:44:39;;;;;;;9.50;8.60;;;;;;;7.73;100.00;99516.44;4984471;28;20188;-77
2023/10/18 08:49:44;;;;;;;10.37;9.27;;;;;;;8.36;100.00;99519.94;4992895;28;20290;-78
2023/10/18 08:52:10;;;;;;;10.87;8.53;;;;;;;8.55;100.00;99513.84;4975296;28;20292;-80
2023/10/18 08:54:41;;;;;;;8.77;7.93;;;;;;;9.13;100.00;99509.69;4992342;28;20215;-80
2023/10/18 08:57:09;;;;;;;9.90;8.13;;;;;;;9.35;100.00;99499.00;4984214;28;20182;-79
2023/10/18 08:59:51;;;;;;;11.53;7.87;;;;;;;9.92;100.00;99493.94;4992834;28;20179;-79
2023/10/18 09:02:18;;;;;;;11.57;8.07;;;;;;;9.59;100.00;99488.19;4981859;28;20242;-78
2023/10/18 09:04:52;;;;;;;8.97;7.33;;;;;;;10.38;100.00;99493.69;4992472;28;20650;-78
2023/10/18 09:07:42;;;;;;;8.87;7.33;;;;;;;11.20;96.07;99485.78;4986963;28;20275;-76
2023/10/18 09:10:13;;;;;;;9.17;7.63;;;;;;;11.44;95.21;99472.19;4975714;28;20644;-78
2023/10/18 09:15:28;;;;;;;8.10;7.27;;;;;;;12.36;88.14;99457.19;4994852;28;20187;-76
2023/10/18 09:18:03;;;;;;;9.07;7.30;;;;;;;12.01;88.51;99460.53;4994524;28;20176;-77
2023/10/18 09:20:29;;;;;;;7.70;5.87;;;;;;;12.37;82.58;99461.41;4988607;28;20273;-79
2023/10/18 09:23:01;;;;;;;7.73;6.97;;;;;;;11.58;91.93;99459.16;5007395;28;20512;-78
2023/10/18 09:25:47;;;;;;;6.90;6.20;;;;;;;11.63;90.92;99446.81;4992696;28;20204;-76
2023/10/18 09:28:13;;;;;;;13.43;12.20;;;;;;;11.71;94.07;99445.44;4993705;28;20227;-77
2023/10/18 09:30:39;;;;;;;11.13;7.67;;;;;;;11.96;91.65;99447.16;4985233;28;20227;-77
2023/10/18 09:33:05;;;;;;;8.17;7.03;;;;;;;11.65;90.62;99433.81;5003305;28;20187;-78
2023/10/18 09:35:31;;;;;;;8.63;7.00;;;;;;;11.33;94.84;99438.63;4991742;28;20219;-80
2023/10/18 09:38:08;;;;;;;7.80;6.70;;;;;;;11.45;93.95;99432.63;4993312;28;20191;-77
2023/10/18 09:40:36;;;;;;;12.90;6.87;;;;;;;10.37;100.00;99426.91;4984535;28;20313;-79
2023/10/18 09:43:02;;;;;;;7.97;7.00;;;;;;;10.61;100.00;99427.06;4991062;28;20237;-79
2023/10/18 09:45:28;;;;;;;8.23;7.30;;;;;;;10.04;100.00;99418.66;4992575;28;20187;-79
2023/10/18 09:47:58;;;;;;;9.10;7.67;;;;;;;9.75;100.00;99417.91;4991827;28;20176;-76
2023/10/18 09:50:31;;;;;;;8.33;7.30;;;;;;;9.52;100.00;99413.25;4976615;28;20242;-78
2023/10/18 09:52:57;;;;;;;10.13;7.97;;;;;;;9.66;100.00;99419.28;4996891;28;20183;-77
2023/10/18 09:55:28;;;;;;;10.80;8.00;;;;;;;10.04;100.00;99415.28;4991325;28;20190;-76
2023/10/18 09:57:59;;;;;;;8.60;7.50;;;;;;;10.25;100.00;99410.50;4991119;28;20275;-76
2023/10/18 10:00:50;;;;;;;10.60;7.57;;;;;;;10.82;100.00;99396.53;4984148;28;20257;-77
2023/10/18 10:03:24;;;;;;;8.43;6.87;;;;;;;11.83;96.13;99397.38;5000385;28;20215;-77
2023/10/18 10:05:49;;;;;;;40.97;10.20;;;;;;;11.00;100.00;99396.22;4990738;28;20236;-77
2023/10/18 10:08:15;;;;;;;7.43;6.73;;;;;;;11.15;100.00;99402.91;4992519;28;20731;-79
2023/10/18 10:10:48;;;;;;;10.83;7.07;;;;;;;10.64;100.00;99393.41;4982038;28;20242;-71
2023/10/18 10:13:25;;;;;;;8.40;7.00;;;;;;;10.78;100.00;99397.66;4972144;28;20183;-79
2023/10/18 10:16:03;;;;;;;7.53;6.70;;;;;;;10.28;100.00;99395.72;4986040;28;20317;-78
2023/10/18 10:18:31;;;;;;;9.40;6.70;;;;;;;10.36;100.00;99389.22;4986128;28;20278;-78
2023/10/18 10:20:58;;;;;;;6.80;6.20;;;;;;;10.74;100.00;99383.34;4988432;28;20261;-77
2023/10/18 10:23:23;;;;;;;9.80;7.10;;;;;;;10.88;100.00;99377.28;4998752;28;20238;-76
2023/10/18 10:26:11;;;;;;;9.33;6.83;;;;;;;10.98;100.00;99371.41;4990622;28;20188;-76
2023/10/18 10:32:04;;;;;;;7.10;6.40;;;;;;;10.10;100.00;99374.56;4992098;28;20671;-79
2023/10/18 10:34:32;;;;;;;7.27;6.47;;;;;;;10.04;100.00;99364.69;4991124;28;20211;-78
2023/10/18 10:37:09;;;;;;;8.40;6.33;;;;;;;10.02;100.00;99363.97;4998594;28;20187;-79
2023/10/18 10:39:36;;;;;;;8.83;6.93;;;;;;;10.38;100.00;99356.56;4995294;28;20183;-79
2023/10/18 10:42:08;;;;;;;6.80;6.03;;;;;;;10.58;100.00;99356.09;4986412;28;20289;-79
2023/10/18 10:44:57;;;;;;;6.93;6.23;;;;;;;10.51;100.00;99339.41;4994378;28;20669;-77
2023/10/18 10:47:29;;;;;;;6.43;5.77;;;;;;;10.48;100.00;99335.31;4995521;28;20186;-78
2023/10/18 10:49:59;;;;;;;8.67;5.97;;;;;;;10.72;100.00;99333.78;4995394;28;20542;-77
2023/10/18 10:52:29;;;;;;;6.97;6.27;;;;;;;10.64;100.00;99324.81;4972179;28;20325;-77
2023/10/18 10:55:24;;;;;;;6.97;5.83;;;;;;;10.63;100.00;99312.03;4995425;28;20195;-77
2023/10/18 10:57:50;;;;;;;6.57;6.07;;;;;;;10.70;100.00;99291.88;4994495;28;20192;-79
2023/10/18 11:03:06;;;;;;;8.77;6.67;;;;;;;11.22;100.00;99290.84;4998538;28;20242;-76
2023/10/18 11:05:37;;;;;;;6.07;5.50;;;;;;;11.32;100.00;99282.50;4996295;28;20187;-81
2023/10/18 11:08:05;;;;;;;5.60;5.10;;;;;;;11.42;100.00;99284.31;4989728;28;20221;-80
2023/10/18 11:10:39;;;;;;;5.83;5.23;;;;;;;11.48;99.64;99280.47;4987453;28;20219;-80
2023/10/18 11:13:06;;;;;;;5.80;5.20;;;;;;;11.50;98.78;99272.63;4982250;28;20183;-80
2023/10/18 11:15:35;;;;;;;5.13;4.63;;;;;;;11.59;98.46;99277.94;5004784;28;20182;-79
2023/10/18 11:18:09;;;;;;;6.33;4.40;;;;;;;11.57;99.50;99271.25;4994025;28;20196;-78
2023/10/18 11:20:48;;;;;;;6.60;5.50;;;;;;;11.64;98.64;99259.56;4988648;28;20222;-81
2023/10/18 11:23:14;;;;;;;6.67;4.70;;;;;;;11.89;97.90;99257.78;5003824;28;20184;-80
2023/10/18 11:25:41;;;;;;;6.30;4.70;;;;;;;11.66;96.84;99252.56;4993290;28;20267;-77
2023/10/18 11:28:20;;;;;;;7.17;4.87;;;;;;;11.80;97.22;99256.72;4993783;28;20230;-77
2023/10/18 11:30:46;;;;;;;7.13;4.47;;;;;;;12.01;96.46;99248.38;4965195;28;20229;-78
2023/10/18 11:33:17;;;;;;;6.93;4.30;;;;;;;12.12;95.54;99245.81;5005805;28;20250;-79
2023/10/18 11:35:48;;;;;;;5.27;4.50;;;;;;;12.08;94.79;99228.91;4995721;28;20521;-80
2023/10/18 11:38:19;;;;;;;5.07;4.63;;;;;;;11.99;94.93;99227.84;4999405;28;20208;-80
2023/10/18 11:40:51;;;;;;;8.07;4.67;;;;;;;12.07;95.09;99224.72;4990423;28;20321;-81
2023/10/18 11:43:27;;;;;;;9.17;4.73;;;;;;;12.11;94.20;99202.91;4989555;28;20614;-80
2023/10/18 11:46:06;;;;;;;6.10;4.37;;;;;;;12.35;92.04;99205.38;4994172;28;20179;-80
2023/10/18 11:48:36;;;;;;;4.67;4.10;;;;;;;12.20;90.65;99194.47;4994147;28;20207;-79
2023/10/18 11:51:02;;;;;;;3.97;3.40;;;;;;;12.31;91.69;99190.28;4986494;28;20226;-79
2023/10/18 11:53:28;;;;;;;4.27;3.70;;;;;;;12.55;90.09;99185.81;5001088;28;20330;-79
2023/10/18 11:56:01;;;;;;;4.47;3.80;;;;;;;12.75;89.98;99175.69;4994586;28;20266;-80
2023/10/18 11:58:33;;;;;;;6.17;3.80;;;;;;;12.86;85.29;99169.69;5008559;28;20183;-78
2023/10/18 12:01:00;;;;;;;6.07;3.33;;;;;;;13.00;82.96;99171.16;4987028;28;20231;-77
2023/10/18 12:03:29;;;;;;;4.10;3.67;;;;;;;12.87;80.10;99171.31;4994324;28;20184;-78
2023/10/18 12:05:59;;;;;;;6.30;4.10;;;;;;;12.75;81.80;99158.47;4996008;28;20171;-79